Amunt
Inicio > meteoXarxa
Fes-te'n soci

METEOXARXA

Benicàssim
Ubicació CEIP Palmerar
Comarca la Plana Alta
Altitud (msnm) 9
Posició geogràfica 40° 3' 22.68" N, 00° 3' 56.52" E
Model Davis Vantage Pro2 Plus (aspirada)
Presa de dades
Font de les dades MeteoBenicassim
Estadístiques. Resum
Data Temperatura (ºC) Humitat (%) Pressió (hPa) Vent (km/h) Precipit. (mm)
Mínima Mitjana Màxima Mínima Mitjana Màxima Mínima Mitjana Màxima Predom. Mitjana Ràfega màxima Total Dies de pluja
Mínima Mitjana Màxima Mínima Mitjana Màxima
Últimes dades diàries
18-01-2017 3,6     6,6     10,2 NNE 9,0 33,8 0,0  
17-01-2017 5,1     10,5     15,7 N 15,4 61,2 0,0  
16-01-2017 12,9     15,3     18,6 N 26,6 75,6 0,0  
15-01-2017 6,7     12,0     15,3 N 13,0 56,3 0,0  
14-01-2017 8,9     11,0     13,9 NNW 17,2 67,6 0,0  
13-01-2017 9,2     12,9     16,2 N 12,0 54,7 0,0  
12-01-2017 4,4     10,9     18,0 S 1,5 17,7  
11-01-2017 7,5     13,0     15,3 NE 7,7 54,7 0,0  
10-01-2017 4,7     11,8     17,0 N 15,0 93,3 0,0  
09-01-2017 2,5     8,8     14,7 S 1,2 17,7 0,0  
08-01-2017 2,2     8,3     14,9 S 0,4 11,3 0,0  
07-01-2017 4,3     9,8     14,0 ESE 0,6 17,7 0,0  
06-01-2017 2,5     9,4     14,1 E 1,1 16,1 0,0  
05-01-2017 5,3     10,5     16,2 E 1,3 20,9 0,0  
04-01-2017 6,3     10,5     15,1 SE 0,6 11,3 0,0  
03-01-2017 5,1     10,2     14,9 SE 0,1 11,3 0,0  
02-01-2017 4,7     8,9     13,3 S 0,3 11,3 0,0  
01-01-2017 2,4     8,7     14,1 E 0,4 12,9 0,0  
31-12-2016 6,1     9,7     14,6 SSE 0,3 9,7 0,0  
30-12-2016 2,8     8,7     15,1 SSE 0,4 9,7 0,0  
29-12-2016 1,8     8,0     13,9 E 1,9 19,3 0,2  
28-12-2016 4,2     10,1     15,7 ESE 1,3 20,9 0,2  
27-12-2016 5,6     10,4     15,6 S 0,1 9,7 0,0  
26-12-2016 5,9     10,6     16,4 E 0,1 11,3 0,2  
25-12-2016 5,6     10,7     17,2 SSW 0,2 12,9 0,0  
24-12-2016 7,8     11,9     17,6 SW 0,4 12,9 0,0  
23-12-2016 6,2     11,3     17,1 SE 0,2 9,7 0,0  
22-12-2016 9,4     14,0     18,8 N 3,1 30,6 0,0  
21-12-2016 11,6     14,3     18,4 N 11,1 45,1 0,0  
20-12-2016 12,0     14,2     17,4 NNW 18,2 56,3 0,0  
19-12-2016 9,7     11,2     12,4 NNE 21,8 61,2 22,6  
18-12-2016 10,8     11,9     13,1 NE 18,3 53,1 6,4  
Dades del mes en curs (actualitzades fins l'últim dia disponible)
01/2017 2,2 5,5 12,9 10,5 10,2 15,1 18,6   6,9 93,3 0,0  
Últimes dades mensuals
12/2016 1,8 8,1 15,7 12,1 12,4 16,4 18,8 4,6 61,2 97,6 15
11/2016 4,6 10,2 16,3 14,8 14,2 19,0 26,2 4,1 66,0 104,0 14
10/2016 10,6 16,6 20,2 20,2 19,4 23,6 26,2 1,8 40,2 15,6 10
09/2016 14,0 19,3 23,7 23,4 18,6 27,1 31,3 2,7 61,2 30,2 5
08/2016 18,2 21,6 24,9 25,5 26,8 28,6 31,5 2,8 48,3 11,8 5
07/2016 17,7 21,6 23,7 25,5 25,4 28,3 30,4 3,3 38,6 0,0 0
06/2016 13,2 18,5 23,4 22,5 22,4 25,7 32,9 3,8 59,5 2,4 1
05/2016 8,6 14,2 18,1 18,1 17,5 21,3 29,8 5,0 62,8 24,4 10
04/2016 5,9 11,6 14,2 15,6 15,4 19,5 27,9 6,1 83,7 30,2 9
03/2016 3,4 8,6 12,1 13,0 12,6 16,9 23,4 7,2 83,7 29,8 7
02/2016 0,1 7,5 15,5 12,7 11,7 17,5 26,1 8,1 88,5 4,2 4
01/2016 2,7 7,8 13,4 12,5 13,1 17,3 23,2 5,0 80,5 1,2 6
12/2015 4,7 7,9 12,7 12,3 15,9 17,3 20,5 0,6 24,1 3,4 16
Dades de l'any en curs (actualitzades fins l'últim dia disponible)
2017 2,2 5,5 12,9 10,5 10,2 15,1 18,6   6,9 93,3 0,0  
Últimes dades anuals
2011 -2,8 13,3 24,7 17,5 9,1 21,3 37,1 5,8 90,1 481,0 87
2012 324,8
2013 0,9 12,9 17,3 17,4 20,3 21,4 31,6 6,9 111,0 295,8 69
2014 -0,3 14,0 25,7 18,1 12,3 21,9 33,7 6,3 88,5 279,6 67
2015 -0,4 13,4 20,9 17,8 20,5 21,9 35,7 6,2 123,9 387,8 98